Flight Track Log - Related Links

Times and Time Zones

All times are in EDT time to prevent confusion due to time zone crossing. See the SKW7423 flight status page for this flight to view local times or setup timezone preferences in your user account.

Time Position Orientation Groundspeed Altitude Reporting Facility
EDT Latitude Longitude Course Direction KTS MPH feet Rate Location/Type
Thu 07:21:18 AM 48.5503 -93.4611 192° South 201 231 3,900  Level Minneapolis Center
Thu 07:22:18 AM 48.4886 -93.4814 192° South 220 253 7,500 3,248 Climbing Minneapolis Center
Thu 07:23:00 AM 48.2010 -93.5300 189° South  Level Estimated
Thu 07:23:31 AM 48.4047 -93.5081 192° South 240 276 11,100  Level Minneapolis Center
Thu 07:24:00 AM 48.0794 -93.5722 188° South  Level Estimated
Thu 07:24:32 AM 48.3292 -93.5264 189° South 259 298 13,900  Level Minneapolis Center
Thu 07:25:00 AM 47.9578 -93.6142 195° South  Level Estimated
Thu 07:25:33 AM 48.2483 -93.5489 191° South 276 318 16,100  Level Minneapolis Center
Thu 07:26:00 AM 47.8362 -93.6560 192° South  Level Estimated
Thu 07:26:34 AM 48.1431 -93.5769 190° South 302 348 18,600  Level Minneapolis Center
Thu 07:27:35 AM 48.0528 -93.6008 190° South 317 365 20,700 1,686 Climbing Minneapolis Center
Thu 07:28:35 AM 47.9594 -93.6247 190° South 329 379 22,000 595 Climbing Minneapolis Center
Thu 07:29:36 AM 47.8594 -93.6500 190° South 353 406 21,900 -49 Descending Minneapolis Center
Thu 07:30:37 AM 47.7708 -93.6728 190° South 334 384 21,900 49 Level Minneapolis Center
Thu 07:31:38 AM 47.6819 -93.6953 190° South 326 375 22,000 49 Climbing Minneapolis Center
Thu 07:32:39 AM 47.5908 -93.7197 190° South 332 382 22,000  Level Minneapolis Center
Thu 07:33:40 AM 47.4994 -93.7417 189° South 335 386 22,000 -49 Level Minneapolis Center
Thu 07:34:41 AM 47.4119 -93.7656 190° South 327 376 21,900 -49 Descending Minneapolis Center
Thu 07:35:42 AM 47.3261 -93.7869 190° South 318 366 21,900 -934 Level Minneapolis Center
Thu 07:36:43 AM 47.2206 -93.8136 190° South 322 371 20,000 -1,967 Descending Minneapolis Center
Thu 07:37:44 AM 47.1289 -93.8367 190° South 328 377 17,900 -1,967 Descending Minneapolis Center
Thu 07:38:45 AM 47.0392 -93.8592 190° South 330 380 16,000 -1,869 Descending Minneapolis Center
Thu 07:39:46 AM 46.9517 -93.8803 189° South 327 376 14,100 -1,869 Descending Minneapolis Center
Thu 07:40:47 AM 46.8678 -93.9008 190° South 319 367 12,200 -1,869 Descending Minneapolis Center
Thu 07:41:48 AM 46.7864 -93.9208 190° South 309 356 10,300 -1,623 Descending Minneapolis Center
Thu 07:42:49 AM 46.7058 -93.9392 189° South 301 346 8,900 -1,328 Descending Minneapolis Center
Thu 07:43:50 AM 46.6306 -93.9583 190° South 290 334 7,600 -1,279 Descending Minneapolis Center
Thu 07:44:51 AM 46.5592 -93.9839 194° South 278 320 6,300 -1,230 Descending Minneapolis Center
Thu 07:45:52 AM 46.4922 -94.0175 199° South 267 307 5,100 -1,180 Descending Minneapolis Center
Thu 07:46:53 AM 46.4200 -93.9997 170° South 245 282 3,900 -885 Descending Minneapolis Center
Thu 07:47:54 AM 46.3692 -93.9867 170° South 212 244 3,300 -492 Descending Minneapolis Center
Thu 07:48:55 AM 46.3453 -94.0478 240° Southwest 183 211 2,900 -590 Descending Minneapolis Center
Thu 07:49:56 AM 46.3594 -94.1053 290° West 180 207 2,100 -541 Descending Minneapolis Center
Thu 07:50:57 AM 46.3900 -94.1281 333° Northwest 163 188 1,800 -295 Descending Minneapolis Center

Login

Don't have an account? Register now (free) for customized features, flight alerts, and more!